sensor_id;sensor_type;location;lat;lon;timestamp;P1;durP1;ratioP1;P2;durP2;ratioP2
12892;SDS011;6514;48.606;9.222;2023-12-20T00:00:20;1.57;;;1.30;;
12892;SDS011;6514;48.606;9.222;2023-12-20T00:02:47;2.07;;;1.47;;
12892;SDS011;6514;48.606;9.222;2023-12-20T00:05:14;1.73;;;1.40;;
12892;SDS011;6514;48.606;9.222;2023-12-20T00:07:40;2.50;;;1.60;;
12892;SDS011;6514;48.606;9.222;2023-12-20T00:10:07;1.40;;;1.30;;
12892;SDS011;6514;48.606;9.222;2023-12-20T00:12:35;3.03;;;1.60;;
12892;SDS011;6514;48.606;9.222;2023-12-20T00:15:03;4.70;;;1.30;;
12892;SDS011;6514;48.606;9.222;2023-12-20T00:17:31;1.77;;;1.10;;
12892;SDS011;6514;48.606;9.222;2023-12-20T00:22:25;1.60;;;1.40;;
12892;SDS011;6514;48.606;9.222;2023-12-20T00:24:52;1.40;;;1.20;;
12892;SDS011;6514;48.606;9.222;2023-12-20T00:27:19;2.23;;;1.37;;
12892;SDS011;6514;48.606;9.222;2023-12-20T00:29:46;2.77;;;1.47;;
12892;SDS011;6514;48.606;9.222;2023-12-20T00:32:16;2.07;;;1.33;;
12892;SDS011;6514;48.606;9.222;2023-12-20T00:34:43;2.27;;;1.60;;
12892;SDS011;6514;48.606;9.222;2023-12-20T00:37:10;1.97;;;1.40;;
12892;SDS011;6514;48.606;9.222;2023-12-20T00:39:37;1.27;;;1.10;;
12892;SDS011;6514;48.606;9.222;2023-12-20T00:42:04;0.93;;;0.83;;
12892;SDS011;6514;48.606;9.222;2023-12-20T00:44:31;1.10;;;1.00;;
12892;SDS011;6514;48.606;9.222;2023-12-20T00:46:58;0.87;;;0.80;;
12892;SDS011;6514;48.606;9.222;2023-12-20T00:49:27;0.90;;;0.80;;
12892;SDS011;6514;48.606;9.222;2023-12-20T00:51:54;1.73;;;1.10;;
12892;SDS011;6514;48.606;9.222;2023-12-20T00:54:21;0.80;;;0.67;;
12892;SDS011;6514;48.606;9.222;2023-12-20T00:56:47;1.77;;;1.07;;
12892;SDS011;6514;48.606;9.222;2023-12-20T00:59:14;1.00;;;0.80;;
12892;SDS011;6514;48.606;9.222;2023-12-20T01:01:42;0.77;;;0.70;;
12892;SDS011;6514;48.606;9.222;2023-12-20T01:04:09;1.03;;;0.70;;
12892;SDS011;6514;48.606;9.222;2023-12-20T01:06:38;1.40;;;1.30;;
12892;SDS011;6514;48.606;9.222;2023-12-20T01:09:07;1.20;;;1.10;;
12892;SDS011;6514;48.606;9.222;2023-12-20T01:11:34;1.30;;;1.20;;
12892;SDS011;6514;48.606;9.222;2023-12-20T01:14:01;1.13;;;1.00;;
12892;SDS011;6514;48.606;9.222;2023-12-20T01:16:28;1.10;;;1.00;;
12892;SDS011;6514;48.606;9.222;2023-12-20T01:18:55;2.03;;;0.90;;
12892;SDS011;6514;48.606;9.222;2023-12-20T01:21:22;1.10;;;1.00;;
12892;SDS011;6514;48.606;9.222;2023-12-20T01:23:50;1.17;;;0.80;;
12892;SDS011;6514;48.606;9.222;2023-12-20T01:26:17;1.30;;;0.90;;
12892;SDS011;6514;48.606;9.222;2023-12-20T01:28:44;1.80;;;0.87;;
12892;SDS011;6514;48.606;9.222;2023-12-20T01:31:11;0.77;;;0.50;;
12892;SDS011;6514;48.606;9.222;2023-12-20T01:33:37;1.00;;;0.80;;
12892;SDS011;6514;48.606;9.222;2023-12-20T01:36:04;1.10;;;1.00;;
12892;SDS011;6514;48.606;9.222;2023-12-20T01:38:31;1.90;;;1.00;;
12892;SDS011;6514;48.606;9.222;2023-12-20T01:41:00;0.93;;;0.77;;
12892;SDS011;6514;48.606;9.222;2023-12-20T01:43:26;1.10;;;0.80;;
12892;SDS011;6514;48.606;9.222;2023-12-20T01:45:53;1.33;;;0.80;;
12892;SDS011;6514;48.606;9.222;2023-12-20T01:48:23;1.20;;;0.60;;
12892;SDS011;6514;48.606;9.222;2023-12-20T01:50:50;1.03;;;1.00;;
12892;SDS011;6514;48.606;9.222;2023-12-20T01:53:18;1.07;;;1.07;;
12892;SDS011;6514;48.606;9.222;2023-12-20T01:55:47;1.10;;;0.60;;
12892;SDS011;6514;48.606;9.222;2023-12-20T01:58:17;1.10;;;0.80;;
12892;SDS011;6514;48.606;9.222;2023-12-20T02:00:45;0.80;;;0.80;;
12892;SDS011;6514;48.606;9.222;2023-12-20T02:03:13;0.60;;;0.60;;
12892;SDS011;6514;48.606;9.222;2023-12-20T02:05:40;0.67;;;0.60;;
12892;SDS011;6514;48.606;9.222;2023-12-20T02:08:07;1.80;;;0.63;;
12892;SDS011;6514;48.606;9.222;2023-12-20T02:10:34;2.20;;;1.00;;
12892;SDS011;6514;48.606;9.222;2023-12-20T02:13:01;0.60;;;0.60;;
12892;SDS011;6514;48.606;9.222;2023-12-20T02:15:29;0.60;;;0.50;;
12892;SDS011;6514;48.606;9.222;2023-12-20T02:17:56;0.80;;;0.80;;
12892;SDS011;6514;48.606;9.222;2023-12-20T02:20:23;0.70;;;0.57;;
12892;SDS011;6514;48.606;9.222;2023-12-20T02:22:51;1.00;;;0.87;;
12892;SDS011;6514;48.606;9.222;2023-12-20T02:25:18;0.60;;;0.53;;
12892;SDS011;6514;48.606;9.222;2023-12-20T02:27:44;0.77;;;0.70;;
12892;SDS011;6514;48.606;9.222;2023-12-20T02:30:11;0.50;;;0.50;;
12892;SDS011;6514;48.606;9.222;2023-12-20T02:32:38;0.60;;;0.60;;
12892;SDS011;6514;48.606;9.222;2023-12-20T02:35:05;0.77;;;0.67;;
12892;SDS011;6514;48.606;9.222;2023-12-20T02:37:32;0.60;;;0.53;;
12892;SDS011;6514;48.606;9.222;2023-12-20T02:40:01;0.93;;;0.67;;
12892;SDS011;6514;48.606;9.222;2023-12-20T02:42:29;0.73;;;0.73;;
12892;SDS011;6514;48.606;9.222;2023-12-20T02:44:56;0.70;;;0.70;;
12892;SDS011;6514;48.606;9.222;2023-12-20T02:47:23;0.87;;;0.87;;
12892;SDS011;6514;48.606;9.222;2023-12-20T02:49:49;0.73;;;0.50;;
12892;SDS011;6514;48.606;9.222;2023-12-20T02:52:17;1.10;;;0.73;;
12892;SDS011;6514;48.606;9.222;2023-12-20T02:54:44;1.97;;;0.90;;
12892;SDS011;6514;48.606;9.222;2023-12-20T02:57:12;1.80;;;0.77;;
12892;SDS011;6514;48.606;9.222;2023-12-20T02:59:39;0.57;;;0.57;;
12892;SDS011;6514;48.606;9.222;2023-12-20T03:02:06;1.00;;;0.90;;
12892;SDS011;6514;48.606;9.222;2023-12-20T03:04:33;1.57;;;0.90;;
12892;SDS011;6514;48.606;9.222;2023-12-20T03:07:00;0.90;;;0.90;;
12892;SDS011;6514;48.606;9.222;2023-12-20T03:09:26;0.70;;;0.70;;
12892;SDS011;6514;48.606;9.222;2023-12-20T03:11:53;1.63;;;0.63;;
12892;SDS011;6514;48.606;9.222;2023-12-20T03:14:21;1.10;;;0.90;;
12892;SDS011;6514;48.606;9.222;2023-12-20T03:16:48;0.50;;;0.50;;
12892;SDS011;6514;48.606;9.222;2023-12-20T03:19:16;0.77;;;0.77;;
12892;SDS011;6514;48.606;9.222;2023-12-20T03:21:43;0.93;;;0.73;;
12892;SDS011;6514;48.606;9.222;2023-12-20T03:24:10;1.07;;;0.60;;
12892;SDS011;6514;48.606;9.222;2023-12-20T03:26:37;0.97;;;0.70;;
12892;SDS011;6514;48.606;9.222;2023-12-20T03:29:04;0.73;;;0.60;;
12892;SDS011;6514;48.606;9.222;2023-12-20T03:31:32;0.50;;;0.50;;
12892;SDS011;6514;48.606;9.222;2023-12-20T03:33:59;0.40;;;0.40;;
12892;SDS011;6514;48.606;9.222;2023-12-20T03:36:26;0.83;;;0.83;;
12892;SDS011;6514;48.606;9.222;2023-12-20T03:38:52;0.77;;;0.77;;
12892;SDS011;6514;48.606;9.222;2023-12-20T03:41:19;0.67;;;0.67;;
12892;SDS011;6514;48.606;9.222;2023-12-20T03:43:46;0.90;;;0.60;;
12892;SDS011;6514;48.606;9.222;2023-12-20T03:46:13;0.70;;;0.70;;
12892;SDS011;6514;48.606;9.222;2023-12-20T03:48:41;0.60;;;0.60;;
12892;SDS011;6514;48.606;9.222;2023-12-20T03:51:08;0.60;;;0.40;;
12892;SDS011;6514;48.606;9.222;2023-12-20T03:53:35;0.50;;;0.50;;
12892;SDS011;6514;48.606;9.222;2023-12-20T03:56:03;0.73;;;0.60;;
12892;SDS011;6514;48.606;9.222;2023-12-20T03:58:29;0.60;;;0.47;;
12892;SDS011;6514;48.606;9.222;2023-12-20T04:00:56;1.90;;;0.50;;
12892;SDS011;6514;48.606;9.222;2023-12-20T04:03:24;0.50;;;0.30;;
12892;SDS011;6514;48.606;9.222;2023-12-20T04:05:52;0.30;;;0.30;;
12892;SDS011;6514;48.606;9.222;2023-12-20T04:08:19;0.60;;;0.50;;
12892;SDS011;6514;48.606;9.222;2023-12-20T04:10:47;0.80;;;0.60;;
12892;SDS011;6514;48.606;9.222;2023-12-20T04:13:14;0.60;;;0.60;;
12892;SDS011;6514;48.606;9.222;2023-12-20T04:15:41;0.57;;;0.57;;
12892;SDS011;6514;48.606;9.222;2023-12-20T04:18:08;1.43;;;0.40;;
12892;SDS011;6514;48.606;9.222;2023-12-20T04:20:35;1.30;;;0.90;;
12892;SDS011;6514;48.606;9.222;2023-12-20T04:23:04;1.30;;;1.00;;
12892;SDS011;6514;48.606;9.222;2023-12-20T04:25:31;2.10;;;1.70;;
12892;SDS011;6514;48.606;9.222;2023-12-20T04:27:58;5.97;;;3.70;;
12892;SDS011;6514;48.606;9.222;2023-12-20T04:30:25;2.17;;;1.30;;
12892;SDS011;6514;48.606;9.222;2023-12-20T04:32:52;5.43;;;3.00;;
12892;SDS011;6514;48.606;9.222;2023-12-20T04:35:18;1.40;;;1.27;;
12892;SDS011;6514;48.606;9.222;2023-12-20T04:37:45;5.57;;;3.60;;
12892;SDS011;6514;48.606;9.222;2023-12-20T04:40:15;3.70;;;2.40;;
12892;SDS011;6514;48.606;9.222;2023-12-20T04:42:42;5.73;;;3.43;;
12892;SDS011;6514;48.606;9.222;2023-12-20T04:45:09;3.93;;;2.50;;
12892;SDS011;6514;48.606;9.222;2023-12-20T04:47:38;7.17;;;3.07;;
12892;SDS011;6514;48.606;9.222;2023-12-20T04:50:05;5.83;;;2.43;;
12892;SDS011;6514;48.606;9.222;2023-12-20T04:52:33;1.80;;;1.60;;
12892;SDS011;6514;48.606;9.222;2023-12-20T04:54:59;2.40;;;0.97;;
12892;SDS011;6514;48.606;9.222;2023-12-20T04:57:28;2.33;;;0.70;;
12892;SDS011;6514;48.606;9.222;2023-12-20T04:59:54;3.60;;;1.77;;
12892;SDS011;6514;48.606;9.222;2023-12-20T05:02:21;1.33;;;0.50;;
12892;SDS011;6514;48.606;9.222;2023-12-20T05:04:48;0.30;;;0.30;;
12892;SDS011;6514;48.606;9.222;2023-12-20T05:07:15;0.40;;;0.40;;
12892;SDS011;6514;48.606;9.222;2023-12-20T05:09:42;0.80;;;0.50;;
12892;SDS011;6514;48.606;9.222;2023-12-20T05:12:09;0.53;;;0.53;;
12892;SDS011;6514;48.606;9.222;2023-12-20T05:14:37;0.60;;;0.30;;
12892;SDS011;6514;48.606;9.222;2023-12-20T05:17:04;0.40;;;0.40;;
12892;SDS011;6514;48.606;9.222;2023-12-20T05:19:30;0.40;;;0.33;;
12892;SDS011;6514;48.606;9.222;2023-12-20T05:22:00;0.23;;;0.23;;
12892;SDS011;6514;48.606;9.222;2023-12-20T05:24:26;0.30;;;0.30;;
12892;SDS011;6514;48.606;9.222;2023-12-20T05:26:53;0.40;;;0.40;;
12892;SDS011;6514;48.606;9.222;2023-12-20T05:29:20;0.37;;;0.37;;
12892;SDS011;6514;48.606;9.222;2023-12-20T05:31:48;0.40;;;0.40;;
12892;SDS011;6514;48.606;9.222;2023-12-20T05:34:15;0.50;;;0.50;;
12892;SDS011;6514;48.606;9.222;2023-12-20T05:36:42;0.40;;;0.40;;
12892;SDS011;6514;48.606;9.222;2023-12-20T05:39:09;0.63;;;0.57;;
12892;SDS011;6514;48.606;9.222;2023-12-20T05:41:36;0.50;;;0.50;;
12892;SDS011;6514;48.606;9.222;2023-12-20T05:44:03;0.50;;;0.50;;
12892;SDS011;6514;48.606;9.222;2023-12-20T05:46:30;0.40;;;0.40;;
12892;SDS011;6514;48.606;9.222;2023-12-20T05:48:58;0.60;;;0.60;;
12892;SDS011;6514;48.606;9.222;2023-12-20T05:51:25;0.30;;;0.30;;
12892;SDS011;6514;48.606;9.222;2023-12-20T05:53:51;0.50;;;0.40;;
12892;SDS011;6514;48.606;9.222;2023-12-20T05:56:18;0.43;;;0.40;;
12892;SDS011;6514;48.606;9.222;2023-12-20T05:58:45;0.57;;;0.57;;
12892;SDS011;6514;48.606;9.222;2023-12-20T06:01:12;0.60;;;0.60;;
12892;SDS011;6514;48.606;9.222;2023-12-20T06:03:42;0.60;;;0.60;;
12892;SDS011;6514;48.606;9.222;2023-12-20T06:06:12;0.50;;;0.50;;
12892;SDS011;6514;48.606;9.222;2023-12-20T06:08:39;0.60;;;0.50;;
12892;SDS011;6514;48.606;9.222;2023-12-20T06:11:08;0.77;;;0.73;;
12892;SDS011;6514;48.606;9.222;2023-12-20T06:13:35;1.73;;;0.60;;
12892;SDS011;6514;48.606;9.222;2023-12-20T06:16:02;0.40;;;0.40;;
12892;SDS011;6514;48.606;9.222;2023-12-20T06:18:29;1.80;;;0.40;;
12892;SDS011;6514;48.606;9.222;2023-12-20T06:20:56;0.40;;;0.40;;
12892;SDS011;6514;48.606;9.222;2023-12-20T06:23:24;0.50;;;0.50;;
12892;SDS011;6514;48.606;9.222;2023-12-20T06:25:52;0.50;;;0.50;;
12892;SDS011;6514;48.606;9.222;2023-12-20T06:28:19;1.03;;;0.70;;
12892;SDS011;6514;48.606;9.222;2023-12-20T06:30:46;1.03;;;0.57;;
12892;SDS011;6514;48.606;9.222;2023-12-20T06:33:14;2.90;;;0.70;;
12892;SDS011;6514;48.606;9.222;2023-12-20T06:35:41;0.60;;;0.60;;
12892;SDS011;6514;48.606;9.222;2023-12-20T06:38:08;0.60;;;0.50;;
12892;SDS011;6514;48.606;9.222;2023-12-20T06:40:36;0.60;;;0.60;;
12892;SDS011;6514;48.606;9.222;2023-12-20T06:43:03;1.23;;;0.37;;
12892;SDS011;6514;48.606;9.222;2023-12-20T06:45:31;0.73;;;0.60;;
12892;SDS011;6514;48.606;9.222;2023-12-20T06:47:58;0.40;;;0.40;;
12892;SDS011;6514;48.606;9.222;2023-12-20T06:50:25;0.50;;;0.50;;
12892;SDS011;6514;48.606;9.222;2023-12-20T06:52:52;0.60;;;0.60;;
12892;SDS011;6514;48.606;9.222;2023-12-20T06:55:19;1.13;;;0.50;;
12892;SDS011;6514;48.606;9.222;2023-12-20T06:57:47;0.90;;;0.50;;
12892;SDS011;6514;48.606;9.222;2023-12-20T07:00:14;1.10;;;0.77;;
12892;SDS011;6514;48.606;9.222;2023-12-20T07:02:43;0.50;;;0.50;;
12892;SDS011;6514;48.606;9.222;2023-12-20T07:05:10;1.10;;;1.00;;
12892;SDS011;6514;48.606;9.222;2023-12-20T07:07:37;0.83;;;0.70;;
12892;SDS011;6514;48.606;9.222;2023-12-20T07:10:04;1.13;;;1.03;;
12892;SDS011;6514;48.606;9.222;2023-12-20T07:12:32;0.93;;;0.70;;
12892;SDS011;6514;48.606;9.222;2023-12-20T07:15:01;0.80;;;0.70;;
12892;SDS011;6514;48.606;9.222;2023-12-20T07:17:27;1.17;;;0.80;;
12892;SDS011;6514;48.606;9.222;2023-12-20T07:19:54;1.20;;;1.10;;
12892;SDS011;6514;48.606;9.222;2023-12-20T07:22:22;3.90;;;0.80;;
12892;SDS011;6514;48.606;9.222;2023-12-20T07:24:48;1.50;;;1.20;;
12892;SDS011;6514;48.606;9.222;2023-12-20T07:27:17;1.50;;;1.00;;
12892;SDS011;6514;48.606;9.222;2023-12-20T07:29:44;2.50;;;1.10;;
12892;SDS011;6514;48.606;9.222;2023-12-20T07:32:12;2.17;;;1.30;;
12892;SDS011;6514;48.606;9.222;2023-12-20T07:34:39;2.10;;;1.33;;
12892;SDS011;6514;48.606;9.222;2023-12-20T07:37:06;2.63;;;1.87;;
12892;SDS011;6514;48.606;9.222;2023-12-20T07:39:35;7.47;;;4.20;;
12892;SDS011;6514;48.606;9.222;2023-12-20T07:42:02;4.80;;;3.30;;
12892;SDS011;6514;48.606;9.222;2023-12-20T07:44:29;2.90;;;2.23;;
12892;SDS011;6514;48.606;9.222;2023-12-20T07:46:56;4.77;;;2.77;;
12892;SDS011;6514;48.606;9.222;2023-12-20T07:49:24;3.17;;;1.80;;
12892;SDS011;6514;48.606;9.222;2023-12-20T07:51:51;1.40;;;1.30;;
12892;SDS011;6514;48.606;9.222;2023-12-20T07:54:17;6.80;;;4.47;;
12892;SDS011;6514;48.606;9.222;2023-12-20T07:56:45;2.57;;;1.87;;
12892;SDS011;6514;48.606;9.222;2023-12-20T07:59:12;3.13;;;1.60;;
12892;SDS011;6514;48.606;9.222;2023-12-20T08:01:39;1.97;;;1.20;;
12892;SDS011;6514;48.606;9.222;2023-12-20T08:04:06;1.20;;;1.10;;
12892;SDS011;6514;48.606;9.222;2023-12-20T08:06:34;1.43;;;0.70;;
12892;SDS011;6514;48.606;9.222;2023-12-20T08:09:00;0.83;;;0.70;;
12892;SDS011;6514;48.606;9.222;2023-12-20T08:11:28;0.70;;;0.70;;
12892;SDS011;6514;48.606;9.222;2023-12-20T08:13:55;1.10;;;0.60;;
12892;SDS011;6514;48.606;9.222;2023-12-20T08:16:21;1.03;;;0.63;;
12892;SDS011;6514;48.606;9.222;2023-12-20T08:18:48;0.70;;;0.70;;
12892;SDS011;6514;48.606;9.222;2023-12-20T08:21:16;1.10;;;0.60;;
12892;SDS011;6514;48.606;9.222;2023-12-20T08:23:46;2.13;;;0.80;;
12892;SDS011;6514;48.606;9.222;2023-12-20T08:26:14;0.87;;;0.53;;
12892;SDS011;6514;48.606;9.222;2023-12-20T08:28:46;3.83;;;0.70;;
12892;SDS011;6514;48.606;9.222;2023-12-20T08:31:13;0.60;;;0.60;;
12892;SDS011;6514;48.606;9.222;2023-12-20T08:33:41;0.80;;;0.70;;
12892;SDS011;6514;48.606;9.222;2023-12-20T08:36:09;0.60;;;0.60;;
12892;SDS011;6514;48.606;9.222;2023-12-20T08:38:36;1.17;;;0.33;;
12892;SDS011;6514;48.606;9.222;2023-12-20T08:41:04;0.60;;;0.60;;
12892;SDS011;6514;48.606;9.222;2023-12-20T08:43:31;1.20;;;0.90;;
12892;SDS011;6514;48.606;9.222;2023-12-20T08:46:00;0.90;;;0.80;;
12892;SDS011;6514;48.606;9.222;2023-12-20T08:48:27;2.30;;;0.50;;
12892;SDS011;6514;48.606;9.222;2023-12-20T08:50:54;1.43;;;0.60;;
12892;SDS011;6514;48.606;9.222;2023-12-20T08:53:21;0.60;;;0.60;;
12892;SDS011;6514;48.606;9.222;2023-12-20T08:55:48;0.50;;;0.50;;
12892;SDS011;6514;48.606;9.222;2023-12-20T08:58:16;0.77;;;0.77;;
12892;SDS011;6514;48.606;9.222;2023-12-20T09:00:43;1.37;;;0.70;;
12892;SDS011;6514;48.606;9.222;2023-12-20T09:03:10;0.40;;;0.40;;
12892;SDS011;6514;48.606;9.222;2023-12-20T09:05:36;1.80;;;0.77;;
12892;SDS011;6514;48.606;9.222;2023-12-20T09:08:04;0.60;;;0.60;;
12892;SDS011;6514;48.606;9.222;2023-12-20T09:10:32;0.40;;;0.40;;
12892;SDS011;6514;48.606;9.222;2023-12-20T09:12:59;0.70;;;0.50;;
12892;SDS011;6514;48.606;9.222;2023-12-20T09:15:28;0.80;;;0.70;;
12892;SDS011;6514;48.606;9.222;2023-12-20T09:17:55;1.87;;;0.67;;
12892;SDS011;6514;48.606;9.222;2023-12-20T09:20:22;1.63;;;0.80;;
12892;SDS011;6514;48.606;9.222;2023-12-20T09:22:49;1.03;;;0.73;;
12892;SDS011;6514;48.606;9.222;2023-12-20T09:25:16;2.20;;;0.97;;
12892;SDS011;6514;48.606;9.222;2023-12-20T09:27:43;1.37;;;1.00;;
12892;SDS011;6514;48.606;9.222;2023-12-20T09:30:10;3.20;;;1.20;;
12892;SDS011;6514;48.606;9.222;2023-12-20T09:32:38;2.73;;;1.10;;
12892;SDS011;6514;48.606;9.222;2023-12-20T09:35:05;1.53;;;0.90;;
12892;SDS011;6514;48.606;9.222;2023-12-20T09:37:33;2.07;;;1.10;;
12892;SDS011;6514;48.606;9.222;2023-12-20T09:40:00;2.50;;;0.97;;
12892;SDS011;6514;48.606;9.222;2023-12-20T09:42:29;1.73;;;0.90;;
12892;SDS011;6514;48.606;9.222;2023-12-20T09:45:06;1.60;;;0.70;;
12892;SDS011;6514;48.606;9.222;2023-12-20T09:47:35;2.40;;;1.33;;
12892;SDS011;6514;48.606;9.222;2023-12-20T09:50:04;0.77;;;0.73;;
12892;SDS011;6514;48.606;9.222;2023-12-20T09:52:32;1.80;;;1.10;;
12892;SDS011;6514;48.606;9.222;2023-12-20T09:55:03;4.20;;;0.90;;
12892;SDS011;6514;48.606;9.222;2023-12-20T09:57:31;1.30;;;0.70;;
12892;SDS011;6514;48.606;9.222;2023-12-20T09:59:58;2.90;;;0.80;;
12892;SDS011;6514;48.606;9.222;2023-12-20T10:02:25;4.40;;;1.10;;
12892;SDS011;6514;48.606;9.222;2023-12-20T10:04:54;1.87;;;0.90;;
12892;SDS011;6514;48.606;9.222;2023-12-20T10:07:21;2.63;;;1.10;;
12892;SDS011;6514;48.606;9.222;2023-12-20T10:09:48;1.43;;;1.00;;
12892;SDS011;6514;48.606;9.222;2023-12-20T10:12:17;2.07;;;0.90;;
12892;SDS011;6514;48.606;9.222;2023-12-20T10:14:44;1.27;;;0.80;;
12892;SDS011;6514;48.606;9.222;2023-12-20T10:17:10;1.00;;;0.80;;
12892;SDS011;6514;48.606;9.222;2023-12-20T10:19:37;3.07;;;0.90;;
12892;SDS011;6514;48.606;9.222;2023-12-20T10:22:05;4.27;;;1.03;;
12892;SDS011;6514;48.606;9.222;2023-12-20T10:24:32;2.77;;;0.80;;
12892;SDS011;6514;48.606;9.222;2023-12-20T10:27:02;2.43;;;0.90;;
12892;SDS011;6514;48.606;9.222;2023-12-20T10:29:31;2.10;;;0.80;;
12892;SDS011;6514;48.606;9.222;2023-12-20T10:31:59;2.73;;;0.90;;
12892;SDS011;6514;48.606;9.222;2023-12-20T10:34:26;2.73;;;1.00;;
12892;SDS011;6514;48.606;9.222;2023-12-20T10:36:53;3.20;;;1.07;;
12892;SDS011;6514;48.606;9.222;2023-12-20T10:39:21;2.87;;;0.93;;
12892;SDS011;6514;48.606;9.222;2023-12-20T10:41:49;1.10;;;0.80;;
12892;SDS011;6514;48.606;9.222;2023-12-20T10:44:16;1.87;;;0.80;;
12892;SDS011;6514;48.606;9.222;2023-12-20T10:46:43;1.97;;;0.70;;
12892;SDS011;6514;48.606;9.222;2023-12-20T10:49:16;1.20;;;0.93;;
12892;SDS011;6514;48.606;9.222;2023-12-20T10:51:45;3.03;;;0.70;;
12892;SDS011;6514;48.606;9.222;2023-12-20T10:54:13;1.90;;;0.80;;
12892;SDS011;6514;48.606;9.222;2023-12-20T10:56:42;3.03;;;0.90;;
12892;SDS011;6514;48.606;9.222;2023-12-20T10:59:10;2.07;;;0.97;;
12892;SDS011;6514;48.606;9.222;2023-12-20T11:01:38;1.53;;;0.70;;
12892;SDS011;6514;48.606;9.222;2023-12-20T11:04:08;1.70;;;0.80;;
12892;SDS011;6514;48.606;9.222;2023-12-20T11:06:42;4.43;;;1.23;;
12892;SDS011;6514;48.606;9.222;2023-12-20T11:09:17;3.97;;;1.00;;
12892;SDS011;6514;48.606;9.222;2023-12-20T11:12:01;3.00;;;0.90;;
12892;SDS011;6514;48.606;9.222;2023-12-20T11:14:38;1.80;;;0.80;;
12892;SDS011;6514;48.606;9.222;2023-12-20T11:17:11;1.80;;;0.70;;
12892;SDS011;6514;48.606;9.222;2023-12-20T11:19:43;3.83;;;0.70;;
12892;SDS011;6514;48.606;9.222;2023-12-20T11:22:31;3.10;;;0.80;;
12892;SDS011;6514;48.606;9.222;2023-12-20T11:25:02;2.17;;;1.00;;
12892;SDS011;6514;48.606;9.222;2023-12-20T11:27:34;1.07;;;0.80;;
12892;SDS011;6514;48.606;9.222;2023-12-20T11:30:02;2.30;;;0.90;;
12892;SDS011;6514;48.606;9.222;2023-12-20T11:32:33;2.73;;;0.70;;
12892;SDS011;6514;48.606;9.222;2023-12-20T11:35:16;1.60;;;0.60;;
12892;SDS011;6514;48.606;9.222;2023-12-20T11:37:45;1.90;;;0.80;;
12892;SDS011;6514;48.606;9.222;2023-12-20T11:40:13;2.77;;;1.00;;
12892;SDS011;6514;48.606;9.222;2023-12-20T11:42:43;3.90;;;0.70;;
12892;SDS011;6514;48.606;9.222;2023-12-20T11:45:13;1.80;;;0.90;;
12892;SDS011;6514;48.606;9.222;2023-12-20T11:47:42;1.97;;;0.70;;
12892;SDS011;6514;48.606;9.222;2023-12-20T11:50:11;2.07;;;0.83;;
12892;SDS011;6514;48.606;9.222;2023-12-20T11:52:38;2.70;;;0.80;;
12892;SDS011;6514;48.606;9.222;2023-12-20T11:55:05;1.47;;;0.70;;
12892;SDS011;6514;48.606;9.222;2023-12-20T11:57:32;2.80;;;1.33;;
12892;SDS011;6514;48.606;9.222;2023-12-20T12:00:01;1.83;;;0.70;;
12892;SDS011;6514;48.606;9.222;2023-12-20T12:02:28;2.00;;;0.70;;
12892;SDS011;6514;48.606;9.222;2023-12-20T12:04:55;2.50;;;0.90;;
12892;SDS011;6514;48.606;9.222;2023-12-20T12:07:24;1.83;;;1.00;;
12892;SDS011;6514;48.606;9.222;2023-12-20T12:09:51;2.00;;;0.60;;
12892;SDS011;6514;48.606;9.222;2023-12-20T12:12:18;4.00;;;1.20;;
12892;SDS011;6514;48.606;9.222;2023-12-20T12:14:45;1.37;;;0.97;;
12892;SDS011;6514;48.606;9.222;2023-12-20T12:17:14;1.43;;;0.80;;
12892;SDS011;6514;48.606;9.222;2023-12-20T12:19:41;2.73;;;0.70;;
12892;SDS011;6514;48.606;9.222;2023-12-20T12:22:09;1.27;;;0.60;;
12892;SDS011;6514;48.606;9.222;2023-12-20T12:24:39;5.47;;;1.10;;
12892;SDS011;6514;48.606;9.222;2023-12-20T12:27:06;2.00;;;1.07;;
12892;SDS011;6514;48.606;9.222;2023-12-20T12:29:33;3.17;;;0.90;;
12892;SDS011;6514;48.606;9.222;2023-12-20T12:32:00;1.67;;;0.77;;
12892;SDS011;6514;48.606;9.222;2023-12-20T12:34:32;2.73;;;0.90;;
12892;SDS011;6514;48.606;9.222;2023-12-20T12:36:59;3.30;;;1.00;;
12892;SDS011;6514;48.606;9.222;2023-12-20T12:39:26;3.57;;;1.20;;
12892;SDS011;6514;48.606;9.222;2023-12-20T12:41:54;3.03;;;1.00;;
12892;SDS011;6514;48.606;9.222;2023-12-20T12:44:22;1.67;;;0.90;;
12892;SDS011;6514;48.606;9.222;2023-12-20T12:46:50;2.93;;;1.10;;
12892;SDS011;6514;48.606;9.222;2023-12-20T12:49:18;4.47;;;1.10;;
12892;SDS011;6514;48.606;9.222;2023-12-20T12:51:47;2.53;;;1.03;;
12892;SDS011;6514;48.606;9.222;2023-12-20T12:54:14;2.73;;;1.07;;
12892;SDS011;6514;48.606;9.222;2023-12-20T12:56:43;5.30;;;1.10;;
12892;SDS011;6514;48.606;9.222;2023-12-20T12:59:10;3.50;;;1.27;;
12892;SDS011;6514;48.606;9.222;2023-12-20T13:01:37;4.00;;;1.40;;
12892;SDS011;6514;48.606;9.222;2023-12-20T13:04:04;2.97;;;1.53;;
12892;SDS011;6514;48.606;9.222;2023-12-20T13:06:35;2.90;;;1.10;;
12892;SDS011;6514;48.606;9.222;2023-12-20T13:09:04;4.87;;;1.40;;
12892;SDS011;6514;48.606;9.222;2023-12-20T13:11:31;3.53;;;1.23;;
12892;SDS011;6514;48.606;9.222;2023-12-20T13:13:58;2.77;;;1.20;;
12892;SDS011;6514;48.606;9.222;2023-12-20T13:16:25;3.37;;;1.00;;
12892;SDS011;6514;48.606;9.222;2023-12-20T13:18:52;6.03;;;1.47;;
12892;SDS011;6514;48.606;9.222;2023-12-20T13:21:19;3.17;;;1.10;;
12892;SDS011;6514;48.606;9.222;2023-12-20T13:23:45;1.10;;;0.73;;
12892;SDS011;6514;48.606;9.222;2023-12-20T13:26:14;4.23;;;1.20;;
12892;SDS011;6514;48.606;9.222;2023-12-20T13:28:41;5.03;;;1.27;;
12892;SDS011;6514;48.606;9.222;2023-12-20T13:31:07;3.87;;;1.10;;
12892;SDS011;6514;48.606;9.222;2023-12-20T13:33:34;1.57;;;0.93;;
12892;SDS011;6514;48.606;9.222;2023-12-20T13:36:03;5.57;;;1.10;;
12892;SDS011;6514;48.606;9.222;2023-12-20T13:38:31;2.30;;;1.17;;
12892;SDS011;6514;48.606;9.222;2023-12-20T13:40:57;2.87;;;1.20;;
12892;SDS011;6514;48.606;9.222;2023-12-20T13:43:26;5.50;;;1.10;;
12892;SDS011;6514;48.606;9.222;2023-12-20T13:45:52;2.40;;;0.90;;
12892;SDS011;6514;48.606;9.222;2023-12-20T13:48:20;2.50;;;1.07;;
12892;SDS011;6514;48.606;9.222;2023-12-20T13:50:47;3.60;;;0.80;;
12892;SDS011;6514;48.606;9.222;2023-12-20T13:53:13;4.90;;;1.20;;
12892;SDS011;6514;48.606;9.222;2023-12-20T13:55:40;2.30;;;0.90;;
12892;SDS011;6514;48.606;9.222;2023-12-20T13:58:07;1.93;;;0.83;;
12892;SDS011;6514;48.606;9.222;2023-12-20T14:00:36;2.07;;;0.80;;
12892;SDS011;6514;48.606;9.222;2023-12-20T14:03:03;2.77;;;0.90;;
12892;SDS011;6514;48.606;9.222;2023-12-20T14:05:30;1.53;;;0.80;;
12892;SDS011;6514;48.606;9.222;2023-12-20T14:07:58;2.30;;;0.87;;
12892;SDS011;6514;48.606;9.222;2023-12-20T14:10:25;5.90;;;1.13;;
12892;SDS011;6514;48.606;9.222;2023-12-20T14:12:53;6.23;;;1.00;;
12892;SDS011;6514;48.606;9.222;2023-12-20T14:15:20;3.33;;;1.13;;
12892;SDS011;6514;48.606;9.222;2023-12-20T14:17:51;5.07;;;1.00;;
12892;SDS011;6514;48.606;9.222;2023-12-20T14:20:18;2.23;;;1.10;;
12892;SDS011;6514;48.606;9.222;2023-12-20T14:22:45;2.40;;;1.40;;
12892;SDS011;6514;48.606;9.222;2023-12-20T14:25:12;4.00;;;1.83;;
12892;SDS011;6514;48.606;9.222;2023-12-20T14:27:41;1.80;;;0.80;;
12892;SDS011;6514;48.606;9.222;2023-12-20T14:30:09;1.80;;;0.80;;
12892;SDS011;6514;48.606;9.222;2023-12-20T14:32:36;2.60;;;0.90;;
12892;SDS011;6514;48.606;9.222;2023-12-20T14:35:06;3.93;;;0.83;;
12892;SDS011;6514;48.606;9.222;2023-12-20T14:37:33;1.60;;;0.80;;
12892;SDS011;6514;48.606;9.222;2023-12-20T14:40:00;3.77;;;0.93;;
12892;SDS011;6514;48.606;9.222;2023-12-20T14:42:27;1.67;;;0.80;;
12892;SDS011;6514;48.606;9.222;2023-12-20T14:44:54;5.77;;;1.50;;
12892;SDS011;6514;48.606;9.222;2023-12-20T14:47:21;1.70;;;1.20;;
12892;SDS011;6514;48.606;9.222;2023-12-20T14:49:48;3.10;;;1.30;;
12892;SDS011;6514;48.606;9.222;2023-12-20T14:52:16;2.77;;;1.27;;
12892;SDS011;6514;48.606;9.222;2023-12-20T14:54:43;4.17;;;1.13;;
12892;SDS011;6514;48.606;9.222;2023-12-20T14:57:10;3.07;;;1.10;;
12892;SDS011;6514;48.606;9.222;2023-12-20T14:59:37;5.90;;;1.43;;
12892;SDS011;6514;48.606;9.222;2023-12-20T15:02:04;1.83;;;0.90;;
12892;SDS011;6514;48.606;9.222;2023-12-20T15:04:31;6.03;;;1.10;;